createdAt,value
2022-12-15T00:02:47.043Z,4139.4
2022-12-15T00:08:23.543Z,4137.9
2022-12-15T00:13:58.504Z,4137.1
2022-12-15T00:19:33.277Z,4135.2
2022-12-15T00:25:08.843Z,4136.2
2022-12-15T00:30:51.420Z,4134.4
2022-12-15T00:36:26.512Z,4131.6
2022-12-15T00:42:02.339Z,4138.6
2022-12-15T00:47:59.455Z,4130.7
2022-12-15T00:53:34.649Z,4134.1
2022-12-15T00:59:10.688Z,4134.4
2022-12-15T01:04:45.696Z,4133.4
2022-12-15T01:10:21.650Z,4131.2
2022-12-15T01:15:57.606Z,4133.4
2022-12-15T01:21:32.910Z,4134.4
2022-12-15T01:27:07.810Z,4131.9
2022-12-15T01:32:47.644Z,4132.2
2022-12-15T01:38:22.733Z,4127.9
2022-12-15T01:43:57.970Z,4130.4
2022-12-15T01:49:55.595Z,4127.7
2022-12-15T01:55:28.756Z,4128.5
2022-12-15T02:01:05.237Z,4129
2022-12-15T02:06:40.908Z,4131.1
2022-12-15T02:12:15.789Z,4132.6
2022-12-15T02:17:50.788Z,4126.5
2022-12-15T02:23:26.135Z,4127.9
2022-12-15T02:29:01.564Z,4126.4
2022-12-15T02:34:36.733Z,4132.2
2022-12-15T02:40:13.340Z,4130.4
2022-12-15T02:45:49.670Z,4126.9
2022-12-15T02:51:25.464Z,4128
2022-12-15T02:57:00.970Z,4124.5
2022-12-15T03:02:37.362Z,4126.9
2022-12-15T03:08:12.564Z,4124.4
2022-12-15T03:13:51.453Z,4119.2
2022-12-15T03:19:26.529Z,4123.5
2022-12-15T03:25:01.663Z,4125.5
2022-12-15T03:30:38.594Z,4126.5
2022-12-15T03:36:13.490Z,4123.2
2022-12-15T03:41:48.190Z,4123
2022-12-15T03:47:46.006Z,4115.5
2022-12-15T03:53:19.159Z,4122.3
2022-12-15T03:58:54.134Z,4122.5
2022-12-15T04:04:29.633Z,4124.2
2022-12-15T04:10:04.766Z,4121.2
2022-12-15T04:15:41.085Z,4124.4
2022-12-15T04:21:16.851Z,4123.3
2022-12-15T04:26:52.296Z,4120.3
2022-12-15T04:32:29.028Z,4120
2022-12-15T04:38:03.923Z,4119.7
2022-12-15T04:43:39.034Z,4118.8
2022-12-15T04:49:36.048Z,4115.1
2022-12-15T04:55:08.721Z,4116.3
2022-12-15T05:00:43.624Z,4121.7
2022-12-15T05:06:18.513Z,4118.8
2022-12-15T05:11:54.007Z,4114.6
2022-12-15T05:17:32.169Z,4118.3
2022-12-15T05:23:08.751Z,4118
2022-12-15T05:28:44.458Z,4113.6
2022-12-15T05:34:21.472Z,4117.8
2022-12-15T05:39:57.132Z,4114.1
2022-12-15T05:45:32.407Z,4116.8
2022-12-15T05:51:08.587Z,4115.1
2022-12-15T05:56:43.653Z,4115.1
2022-12-15T06:02:19.809Z,4116.1
2022-12-15T06:07:54.826Z,4116.6
2022-12-15T06:13:33.641Z,4113.5
2022-12-15T06:19:10.637Z,4113
2022-12-15T06:24:45.856Z,4114
2022-12-15T06:30:21.715Z,4111.6
2022-12-15T06:36:19.060Z,4113.8
2022-12-15T06:41:54.136Z,4113
2022-12-15T06:47:51.134Z,4108.1
2022-12-15T06:53:25.149Z,4112
2022-12-15T06:59:00.643Z,4114.1
2022-12-15T07:04:35.944Z,4109.4
2022-12-15T07:10:11.029Z,4109.6
2022-12-15T07:15:47.213Z,4108.4
2022-12-15T07:21:22.364Z,4105.8
2022-12-15T07:26:57.758Z,4106.4
2022-12-15T07:32:32.826Z,4108.3
2022-12-15T07:38:08.346Z,4104.1
2022-12-15T07:43:43.247Z,4104.4
2022-12-15T07:49:19.094Z,4104.6
2022-12-15T07:54:54.137Z,4103.2
2022-12-15T08:00:30.729Z,4104.8
2022-12-15T08:06:05.868Z,4107.1
2022-12-15T08:11:41.007Z,4153
2022-12-15T08:17:16.295Z,4170.4
2022-12-15T08:22:53.726Z,4123.9
2022-12-15T08:28:28.883Z,4122.7
2022-12-15T08:34:03.893Z,4118.7
2022-12-15T08:39:39.366Z,4119.8
2022-12-15T08:45:17.338Z,4116.5
2022-12-15T08:50:55.062Z,4125.9
2022-12-15T08:57:02.948Z,4124.5
2022-12-15T09:02:38.919Z,4120
2022-12-15T09:08:14.012Z,4128.9
2022-12-15T09:13:50.109Z,4125.5
2022-12-15T09:19:25.586Z,4131.2
2022-12-15T09:25:00.855Z,4129.4
2022-12-15T09:30:37.166Z,4127.5
2022-12-15T09:36:12.609Z,4126.5
2022-12-15T09:41:49.240Z,4137.1
2022-12-15T09:47:45.990Z,4142.4
2022-12-15T09:53:59.933Z,4149.8
2022-12-15T09:59:36.358Z,4156.7
2022-12-15T10:05:12.221Z,4190.3
2022-12-15T10:10:50.424Z,4177.5
2022-12-15T10:16:29.515Z,4180.6
2022-12-15T10:22:04.663Z,4183.5
2022-12-15T10:27:44.588Z,4206.6
2022-12-15T10:33:23.494Z,4206.1
2022-12-15T10:39:02.407Z,4188.2
2022-12-15T10:44:38.180Z,4196.7
2022-12-15T10:50:13.704Z,4181.3
2022-12-15T10:55:51.167Z,4204.9
2022-12-15T11:01:28.521Z,4194
2022-12-15T11:07:04.381Z,4187.2
2022-12-15T11:12:40.237Z,4192
2022-12-15T11:18:19.708Z,4203.2
2022-12-15T11:24:41.351Z,4183
2022-12-15T11:30:16.726Z,4190.2
2022-12-15T11:36:02.637Z,4191
2022-12-15T11:41:38.445Z,4182.6
2022-12-15T11:47:35.678Z,4197
2022-12-15T11:53:08.493Z,4198.2
2022-12-15T11:58:55.614Z,4196
2022-12-15T12:04:31.504Z,4191.2
2022-12-15T12:10:06.529Z,4195.4
2022-12-15T12:15:42.624Z,4212.6
2022-12-15T12:21:22.820Z,4205.6
2022-12-15T12:26:58.760Z,4202.2
2022-12-15T12:32:34.460Z,4197.7
2022-12-15T12:38:09.877Z,4204.8
2022-12-15T12:44:03.188Z,4213.8
2022-12-15T12:50:00.135Z,4205.6
2022-12-15T12:55:54.110Z,4197.5
2022-12-15T13:01:52.060Z,4203.7
2022-12-15T13:07:36.441Z,4201.7
2022-12-15T13:13:12.635Z,4218
2022-12-15T13:19:06.607Z,4210.6
2022-12-15T13:24:42.292Z,4197.4
2022-12-15T13:30:22.600Z,4219
2022-12-15T13:35:57.500Z,4209.1
2022-12-15T13:42:34.490Z,4217
2022-12-15T13:48:12.856Z,4192.5
2022-12-15T13:54:53.680Z,4213.1
2022-12-15T14:00:30.147Z,4212
2022-12-15T14:07:55.160Z,4215.5
2022-12-15T14:15:53.944Z,4212.3
2022-12-15T14:21:30.529Z,4202.6
2022-12-15T14:27:08.622Z,4195.2
2022-12-15T14:32:45.872Z,4193
2022-12-15T14:38:23.747Z,4198.1
2022-12-15T15:03:25.540Z,4193.4
2022-12-15T15:09:03.462Z,4190.2
2022-12-15T15:14:38.163Z,4186
2022-12-15T15:20:13.373Z,4183.3
2022-12-15T15:26:02.578Z,4184.2
2022-12-15T15:32:13.037Z,4188.2
2022-12-15T15:38:21.340Z,4189.8
2022-12-15T15:44:14.969Z,4182
2022-12-15T15:49:54.839Z,4175.9
2022-12-15T15:55:43.988Z,4176.1
2022-12-15T16:01:21.176Z,4174.9
2022-12-15T16:06:56.841Z,4174.3
2022-12-15T16:12:32.058Z,4174.4
2022-12-15T16:18:30.158Z,4172.4
2022-12-15T16:25:50.913Z,4173.1
2022-12-15T16:31:41.850Z,4170.7
2022-12-15T16:37:17.478Z,4172.6
2022-12-15T16:43:02.102Z,4174.6
2022-12-15T16:49:00.155Z,4168.1
2022-12-15T16:54:33.124Z,4167.2
2022-12-15T17:00:08.071Z,4170.9
2022-12-15T17:05:43.243Z,4167.6
2022-12-15T17:11:18.321Z,4168.6
2022-12-15T17:16:56.434Z,4172.4
2022-12-15T17:22:31.937Z,4169.6
2022-12-15T17:28:07.873Z,4166.9
2022-12-15T17:33:43.370Z,4167.4
2022-12-15T17:39:18.904Z,4166.1
2022-12-15T17:44:54.764Z,4167.7
2022-12-15T17:50:30.362Z,4166.7
2022-12-15T17:56:05.683Z,4165.1
2022-12-15T18:01:42.699Z,4167.6
2022-12-15T18:07:46.368Z,4166.2
2022-12-15T18:13:35.843Z,4171.4
2022-12-15T18:19:11.335Z,4170.1
2022-12-15T18:25:07.369Z,4167.2
2022-12-15T18:30:51.159Z,4164.1
2022-12-15T18:36:41.943Z,4164.2
2022-12-15T18:42:17.186Z,4164.7
2022-12-15T18:47:56.309Z,4166.6
2022-12-15T18:53:35.575Z,4160
2022-12-15T18:59:11.699Z,4161.2
2022-12-15T19:04:47.084Z,4161.5
2022-12-15T19:10:22.108Z,4163.2
2022-12-15T19:16:18.986Z,4161.7
2022-12-15T19:21:54.472Z,4164.2
2022-12-15T19:27:30.005Z,4162.7
2022-12-15T19:33:04.963Z,4163.9
2022-12-15T19:38:40.746Z,4161
2022-12-15T19:44:16.942Z,4159
2022-12-15T19:49:56.037Z,4160.4
2022-12-15T19:55:33.736Z,4160.5
2022-12-15T20:01:09.452Z,4159.4
2022-12-15T20:06:45.127Z,4160
2022-12-15T20:12:26.746Z,4159
2022-12-15T20:18:03.887Z,4160.9
2022-12-15T20:23:38.717Z,4158.7
2022-12-15T20:29:23.892Z,4155
2022-12-15T20:34:59.181Z,4156.8
2022-12-15T20:40:33.919Z,4157.9
2022-12-15T20:46:10.174Z,4157.2
2022-12-15T20:51:45.528Z,4155.2
2022-12-15T20:57:20.716Z,4155
2022-12-15T21:02:59.378Z,4157.5
2022-12-15T21:08:34.905Z,4155
2022-12-15T21:14:10.250Z,4155.8
2022-12-15T21:19:46.489Z,4153.8
2022-12-15T21:25:21.949Z,4153.5
2022-12-15T21:30:58.696Z,4155.2
2022-12-15T21:36:34.816Z,4154.8
2022-12-15T21:42:09.749Z,4155.2
2022-12-15T21:47:45.093Z,4151.5
2022-12-15T21:53:20.116Z,4154
2022-12-15T21:58:56.005Z,4149.8
2022-12-15T22:04:30.970Z,4154.3
2022-12-15T22:10:05.869Z,4153.7
2022-12-15T22:15:41.921Z,4151.7
2022-12-15T22:21:18.326Z,4151.2
2022-12-15T22:26:55.456Z,4152.2
2022-12-15T22:32:30.394Z,4151.2
2022-12-15T22:38:05.429Z,4149.5
2022-12-15T22:43:41.175Z,4148.3
2022-12-15T22:49:37.694Z,4146.1
2022-12-15T22:55:22.272Z,4151.5
2022-12-15T23:00:57.171Z,4149.3
2022-12-15T23:06:32.359Z,4147.6
2022-12-15T23:12:07.042Z,4148.6
2022-12-15T23:17:44.458Z,4148.8
2022-12-15T23:23:19.797Z,4148
2022-12-15T23:28:56.531Z,4147.6
2022-12-15T23:34:32.003Z,4148.8
2022-12-15T23:40:07.098Z,4148.5
2022-12-15T23:45:41.997Z,4146.1
2022-12-15T23:51:18.269Z,4148.8
2022-12-15T23:56:56.113Z,4147.6
